WIII/CGK METAR and TAF weather

Enter ICAO airport designator
Station Type Date Time Source
WIII METAR 2022/07/01 01:30 UTC NOAA

WIII 010130Z VRB04KT 4000 HZ FEW021 28/24 Q1009 NOSIG


Station Type Date Time Source
WIII Decoded METAR 2022/07/01 01:30 UTC NOAA

Jakarta / Soekarno-Hatta, Indonesia (WIII) 06-07S 106-39E 8M
Jun 30, 2022 - 09:30 PM EDT / 2022.07.01 0130 UTC
Wind: Variable at 5 MPH (4 KT):0
Visibility: 2 mile(s):0
Sky conditions: mostly clear
Weather: haze
Temperature: 82 F (28 C)
Dew Point: 75 F (24 C)
Relative Humidity: 78%
Pressure (altimeter): 29.80 in. Hg (1009 hPa)
ob: WIII 010130Z VRB04KT 4000 HZ FEW021 28/24 Q1009 NOSIG
cycle: 1

Station Type Date Time Source
WIII TAF 2022/06/30 18:57 UTC NOAA

TAF WIII 301700Z 3018/0124 21005KT 5000 HZ SCT020
BECMG 0102/0104 03010KT 9000 NSW
BECMG 0113/0115 22005KT 5000 HZ

Example: see airport list